Time;durP1;ratioP1;P1;durP2;ratioP2;P2;SDS_P1;SDS_P2;PMS_P1;PMS_P2;Temp;Humidity;BMP_temperature;BMP_pressure;BME280_temperature;BME280_humidity;BME280_pressure;Samples;Min_cycle;Max_cycle;Signal;HPM_P1;HPM_P2
2021/01/18 00:00:20;;;;;;;18.58;7.88;;;;;;;2.79;76.58;100765.31;4915847;29;20132;-35
2021/01/18 00:02:49;;;;;;;14.35;7.57;;;;;;;2.79;76.24;100781.59;4931240;29;20052;-35
2021/01/18 00:05:22;;;;;;;16.17;7.78;;;;;;;2.78;76.99;100784.94;4917130;29;20408;-35
2021/01/18 00:07:54;;;;;;;13.80;6.57;;;;;;;2.77;77.44;100780.59;4916955;29;20040;-35
2021/01/18 00:10:22;;;;;;;14.82;8.18;;;;;;;2.77;76.35;100769.47;4915792;29;20052;-35
2021/01/18 00:12:53;;;;;;;17.23;7.53;;;;;;;2.78;75.65;100771.25;4931465;29;20044;-35
2021/01/18 00:15:23;;;;;;;21.42;8.60;;;;;;;2.78;75.99;100761.00;4916371;29;20040;-35
2021/01/18 00:17:49;;;;;;;14.35;7.93;;;;;;;2.80;76.07;100772.22;4917165;29;20162;-35
2021/01/18 00:20:17;;;;;;;22.33;8.95;;;;;;;2.79;76.03;100766.22;4916590;29;20412;-35
2021/01/18 00:22:46;;;;;;;17.48;8.35;;;;;;;2.78;77.11;100763.56;4931950;29;20035;-34
2021/01/18 00:25:24;;;;;;;23.10;9.82;;;;;;;2.77;77.27;100762.69;4934909;29;20032;-34
2021/01/18 00:27:53;;;;;;;18.15;9.52;;;;;;;2.79;75.86;100773.91;4935395;29;20044;-35
2021/01/18 00:30:24;;;;;;;24.73;11.50;;;;;;;2.77;76.52;100755.00;4920375;29;20496;-35
2021/01/18 00:32:51;;;;;;;20.73;9.60;;;;;;;2.78;76.53;100761.91;4934716;29;20036;-35
2021/01/18 00:35:25;;;;;;;20.05;9.52;;;;;;;2.78;76.49;100759.34;4935300;29;20416;-35
2021/01/18 00:37:54;;;;;;;18.20;9.95;;;;;;;2.79;76.05;100767.88;4920247;29;20036;-35
2021/01/18 00:40:25;;;;;;;22.70;9.75;;;;;;;2.78;76.47;100772.13;4920172;29;20039;-35
2021/01/18 00:42:54;;;;;;;17.58;10.82;;;;;;;2.78;76.61;100766.13;4935176;29;20619;-35
2021/01/18 00:45:22;;;;;;;19.35;11.60;;;;;;;2.78;76.82;100763.56;4918854;29;20040;-34
2021/01/18 00:47:52;;;;;;;20.90;10.98;;;;;;;2.79;77.26;100757.66;4920247;29;20496;-35
2021/01/18 00:50:23;;;;;;;22.27;11.75;;;;;;;2.80;76.44;100759.41;4918800;29;20400;-35
2021/01/18 00:52:51;;;;;;;23.23;11.63;;;;;;;2.79;76.44;100749.97;4934492;29;20036;-35
2021/01/18 00:55:24;;;;;;;24.85;12.35;;;;;;;2.80;76.89;100751.72;4919718;29;20563;-35
2021/01/18 00:57:50;;;;;;;24.60;12.13;;;;;;;2.80;76.08;100744.06;4920149;29;20060;-35
2021/01/18 01:00:21;;;;;;;23.35;12.45;;;;;;;2.80;76.26;100755.19;4918226;29;20036;-35
2021/01/18 01:02:53;;;;;;;23.27;11.60;;;;;;;2.79;76.61;100743.19;4918208;29;20059;-34
2021/01/18 01:05:24;;;;;;;22.30;11.88;;;;;;;2.79;76.53;100735.50;4919770;29;20142;-35
2021/01/18 01:07:55;;;;;;;26.80;11.95;;;;;;;2.80;76.47;100734.72;4919542;29;20043;-35
2021/01/18 01:10:32;;;;;;;24.27;12.52;;;;;;;2.80;77.10;100731.25;4934684;29;20107;-35
2021/01/18 01:13:04;;;;;;;29.73;15.27;;;;;;;2.81;76.28;100733.03;4919819;29;20040;-35
2021/01/18 01:15:33;;;;;;;30.98;14.05;;;;;;;2.79;76.10;100738.06;4918439;29;20381;-35
2021/01/18 01:18:04;;;;;;;25.70;12.85;;;;;;;2.80;75.70;100734.72;4919345;29;20046;-35
2021/01/18 01:20:30;;;;;;;24.98;12.23;;;;;;;2.80;75.52;100739.84;4919956;29;20036;-35
2021/01/18 01:23:01;;;;;;;31.23;13.40;;;;;;;2.79;76.22;100729.47;4918273;29;20068;-35
2021/01/18 01:25:29;;;;;;;24.10;12.35;;;;;;;2.80;76.66;100736.38;4919400;29;20174;-35
2021/01/18 01:27:58;;;;;;;21.77;12.57;;;;;;;2.81;76.84;100730.47;4917985;29;20036;-35
2021/01/18 01:30:25;;;;;;;25.10;12.88;;;;;;;2.80;76.91;100731.25;4933808;29;20036;-36
2021/01/18 01:32:55;;;;;;;29.15;13.52;;;;;;;2.79;77.04;100732.03;4934468;29;20098;-35
2021/01/18 01:35:25;;;;;;;24.80;12.30;;;;;;;2.80;76.17;100741.50;4917472;29;20412;-35
2021/01/18 01:37:57;;;;;;;24.45;13.55;;;;;;;2.80;76.57;100739.84;4919091;29;20433;-34
2021/01/18 01:40:24;;;;;;;26.65;12.80;;;;;;;2.81;76.15;100735.59;4933571;29;20035;-34
2021/01/18 01:42:53;;;;;;;32.78;12.88;;;;;;;2.79;77.08;100732.94;4933613;29;20069;-35
2021/01/18 01:45:20;;;;;;;26.48;12.45;;;;;;;2.82;76.07;100737.34;4917630;29;20095;-35
2021/01/18 01:47:56;;;;;;;23.95;12.73;;;;;;;2.82;77.42;100733.09;4917448;29;20032;-35
2021/01/18 01:50:34;;;;;;;27.75;13.98;;;;;;;2.81;77.58;100731.31;4918922;29;20040;-35
2021/01/18 01:53:14;;;;;;;24.15;12.68;;;;;;;2.81;77.58;100726.22;4919149;29;20040;-35
2021/01/18 01:55:44;;;;;;;21.17;11.93;;;;;;;2.80;77.62;100726.13;4901703;29;20528;-35
2021/01/18 01:58:10;;;;;;;23.35;13.40;;;;;;;2.80;76.39;100731.25;4918642;29;20067;-35
2021/01/18 02:00:42;;;;;;;26.40;12.13;;;;;;;2.82;76.92;100737.34;4918873;29;20048;-34
2021/01/18 02:03:08;;;;;;;28.38;12.15;;;;;;;2.81;76.46;100720.22;4934116;29;20506;-35
2021/01/18 02:05:39;;;;;;;25.67;12.43;;;;;;;2.82;76.09;100725.41;4920403;29;20403;-34
2021/01/18 02:08:14;;;;;;;27.25;13.18;;;;;;;2.81;77.42;100728.78;4937693;29;20099;-34
2021/01/18 02:10:39;;;;;;;24.50;13.25;;;;;;;2.81;76.49;100731.31;4937555;29;20043;-35
2021/01/18 02:13:25;;;;;;;22.85;11.10;;;;;;;2.80;77.97;100727.03;4937725;29;20048;-35
2021/01/18 02:16:00;;;;;;;26.05;12.75;;;;;;;2.83;77.35;100726.31;4937160;29;20443;-34
2021/01/18 02:19:22;;;;;;;25.60;12.13;;;;;;;2.82;78.21;100722.00;4937486;29;20040;-34
2021/01/18 02:22:16;;;;;;;25.50;12.73;;;;;;;2.80;78.36;100718.44;4859965;29;20096;-35
2021/01/18 02:25:14;;;;;;;29.73;12.65;;;;;;;2.79;78.40;100724.38;4860205;29;20068;-34
2021/01/18 02:28:17;;;;;;;32.97;12.23;;;;;;;2.79;78.16;100722.69;4936245;29;20062;-35
2021/01/18 02:31:13;;;;;;;30.10;12.98;;;;;;;2.79;78.03;100721.81;4937406;29;20063;-35
2021/01/18 02:34:10;;;;;;;28.67;12.60;;;;;;;2.80;78.06;100723.56;4920646;29;20471;-35
2021/01/18 02:36:57;;;;;;;25.25;12.98;;;;;;;2.79;78.24;100721.81;4904656;29;20036;-35
2021/01/18 02:39:42;;;;;;;34.53;13.25;;;;;;;2.79;77.27;100724.38;4937203;29;20126;-36
2021/01/18 02:42:16;;;;;;;27.63;14.85;;;;;;;2.79;77.24;100726.91;4920596;29;20043;-35
2021/01/18 02:44:46;;;;;;;33.05;12.93;;;;;;;2.79;76.80;100724.38;4920977;29;20039;-35
2021/01/18 02:47:19;;;;;;;32.05;14.35;;;;;;;2.78;77.21;100723.50;4919353;29;20055;-35
2021/01/18 02:49:51;;;;;;;22.17;11.02;;;;;;;2.78;77.38;100723.50;4937294;29;20058;-35
2021/01/18 02:52:17;;;;;;;27.65;13.05;;;;;;;2.80;75.98;100721.91;4919572;29;20075;-35
2021/01/18 02:54:45;;;;;;;29.88;11.68;;;;;;;2.79;76.44;100722.69;4936772;29;20071;-35
2021/01/18 02:57:17;;;;;;;34.60;12.93;;;;;;;2.77;77.54;100726.84;4919514;29;20043;-35
2021/01/18 02:59:43;;;;;;;31.55;13.38;;;;;;;2.80;77.14;100728.69;4919893;29;20058;-35
2021/01/18 03:02:14;;;;;;;28.63;11.80;;;;;;;2.81;77.23;100725.34;4936102;29;20412;-35
2021/01/18 03:05:02;;;;;;;39.20;13.32;;;;;;;2.82;77.92;100732.22;4903578;29;20039;-35
2021/01/18 03:07:39;;;;;;;29.42;14.18;;;;;;;2.81;76.74;100720.22;4904399;29;20098;-35
2021/01/18 03:10:08;;;;;;;23.75;11.73;;;;;;;2.79;77.51;100719.25;4919831;29;20043;-35
2021/01/18 03:12:58;;;;;;;29.00;11.57;;;;;;;2.81;77.66;100730.47;4919485;29;20035;-35
2021/01/18 03:15:28;;;;;;;23.92;12.30;;;;;;;2.79;76.91;100727.81;4937021;29;20039;-34
2021/01/18 03:17:58;;;;;;;29.85;10.88;;;;;;;2.81;77.32;100733.03;4920550;29;20388;-34
2021/01/18 03:20:24;;;;;;;25.10;9.82;;;;;;;2.79;76.51;100722.69;4935430;29;20085;-34
2021/01/18 03:22:50;;;;;;;27.25;11.82;;;;;;;2.79;76.46;100730.38;4935358;29;20490;-34
2021/01/18 03:25:15;;;;;;;27.10;10.93;;;;;;;2.80;76.49;100727.03;4936326;29;20139;-34
2021/01/18 03:27:53;;;;;;;24.33;10.63;;;;;;;2.82;77.72;100732.22;4936224;29;20028;-34
2021/01/18 03:30:21;;;;;;;31.42;13.05;;;;;;;2.80;76.42;100737.28;4935998;29;20040;-34
2021/01/18 03:32:48;;;;;;;27.20;11.77;;;;;;;2.80;76.79;100723.56;4919187;29;20036;-34
2021/01/18 03:35:18;;;;;;;22.35;10.20;;;;;;;2.82;76.63;100722.00;4936072;29;20035;-33
2021/01/18 03:37:51;;;;;;;35.30;12.50;;;;;;;2.81;76.31;100725.34;4935784;29;20411;-33
2021/01/18 03:40:16;;;;;;;29.07;12.33;;;;;;;2.80;76.60;100713.34;4934668;29;20044;-34
2021/01/18 03:42:54;;;;;;;29.83;11.98;;;;;;;2.80;76.49;100721.00;4935938;29;20524;-35
2021/01/18 03:45:25;;;;;;;28.42;13.05;;;;;;;2.80;77.09;100721.00;4936358;29;20040;-37
2021/01/18 03:47:50;;;;;;;31.92;13.27;;;;;;;2.81;76.36;100727.91;4936415;29;20051;-36
2021/01/18 03:50:16;;;;;;;27.48;12.48;;;;;;;2.78;76.83;100728.63;4936492;29;20036;-35
2021/01/18 03:52:48;;;;;;;27.83;12.75;;;;;;;2.80;77.24;100732.16;4936125;29;20050;-33
2021/01/18 03:55:20;;;;;;;30.20;13.85;;;;;;;2.81;77.01;100739.00;4936579;29;20102;-34
2021/01/18 03:57:53;;;;;;;33.20;14.10;;;;;;;2.81;76.65;100743.25;4938467;29;20044;-34
2021/01/18 04:00:32;;;;;;;31.25;14.50;;;;;;;2.81;77.89;100740.69;4923052;29;20047;-35
2021/01/18 04:02:58;;;;;;;32.60;12.95;;;;;;;2.80;76.80;100729.59;4939634;29;20495;-34
2021/01/18 04:05:25;;;;;;;26.10;12.57;;;;;;;2.80;76.96;100732.16;4922496;29;20036;-34
2021/01/18 04:07:54;;;;;;;30.30;13.25;;;;;;;2.78;76.79;100725.16;4939508;29;20032;-33
2021/01/18 04:10:28;;;;;;;29.77;12.32;;;;;;;2.78;76.97;100723.50;4939768;29;20027;-33
2021/01/18 04:12:57;;;;;;;35.10;13.02;;;;;;;2.78;76.35;100723.50;4922775;29;20080;-34
2021/01/18 04:15:27;;;;;;;28.50;12.57;;;;;;;2.77;76.81;100724.28;4938442;29;20385;-34
2021/01/18 04:17:57;;;;;;;28.83;13.20;;;;;;;2.75;76.39;100715.63;4939594;29;20509;-35
2021/01/18 04:20:28;;;;;;;26.38;13.82;;;;;;;2.77;77.18;100720.81;4939832;29;20079;-34
2021/01/18 04:23:04;;;;;;;25.95;13.98;;;;;;;2.76;77.21;100713.94;4939642;29;20075;-34
2021/01/18 04:25:30;;;;;;;26.52;13.70;;;;;;;2.75;76.87;100710.50;4939450;29;20047;-35
2021/01/18 04:28:03;;;;;;;36.47;12.18;;;;;;;2.77;76.85;100708.03;4939300;29;20039;-34
2021/01/18 04:30:36;;;;;;;37.17;13.45;;;;;;;2.74;77.00;100717.28;4922175;29;20064;-35
2021/01/18 04:33:09;;;;;;;33.38;15.07;;;;;;;2.73;77.98;100707.84;4939662;29;20043;-35
2021/01/18 04:35:41;;;;;;;25.90;11.73;;;;;;;2.74;77.12;100711.31;4939699;29;20047;-34
2021/01/18 04:38:13;;;;;;;33.47;13.77;;;;;;;2.73;76.32;100702.72;4921952;29;20035;-35
2021/01/18 04:40:42;;;;;;;37.40;15.00;;;;;;;2.72;76.52;100703.53;4938749;29;20059;-33
2021/01/18 04:43:15;;;;;;;29.52;13.95;;;;;;;2.70;76.83;100696.56;4939094;29;20538;-35
2021/01/18 04:45:41;;;;;;;25.92;13.27;;;;;;;2.72;76.25;100698.44;4938014;29;20571;-33
2021/01/18 04:48:07;;;;;;;27.83;14.15;;;;;;;2.70;76.37;100694.88;4937558;29;20134;-34
2021/01/18 04:50:33;;;;;;;32.83;13.60;;;;;;;2.71;76.39;100693.19;4938633;29;20039;-34
2021/01/18 04:53:07;;;;;;;29.27;12.90;;;;;;;2.71;76.90;100703.44;4905905;29;20471;-34
2021/01/18 04:55:49;;;;;;;32.97;11.57;;;;;;;2.71;76.83;100690.63;4938735;29;20617;-35
2021/01/18 04:58:19;;;;;;;27.40;13.32;;;;;;;2.70;76.81;100697.44;4921715;29;20072;-35
2021/01/18 05:00:50;;;;;;;35.45;13.57;;;;;;;2.68;76.98;100688.78;4938923;29;20059;-34
2021/01/18 05:03:17;;;;;;;29.13;14.07;;;;;;;2.67;76.41;100688.69;4938413;29;20052;-34
2021/01/18 05:05:51;;;;;;;32.08;14.40;;;;;;;2.68;77.52;100693.00;4938602;29;20127;-34
2021/01/18 05:08:35;;;;;;;32.15;14.18;;;;;;;2.66;77.72;100687.81;4938058;29;20042;-35
2021/01/18 05:11:04;;;;;;;25.73;13.50;;;;;;;2.66;76.52;100699.72;4938563;29;20428;-34
2021/01/18 05:13:33;;;;;;;32.72;12.90;;;;;;;2.66;76.47;100697.16;4938523;29;20483;-34
2021/01/18 05:16:02;;;;;;;32.05;13.60;;;;;;;2.67;76.05;100694.69;4905327;29;20047;-34
2021/01/18 05:18:34;;;;;;;31.83;12.93;;;;;;;2.67;76.75;100688.69;4938603;29;20032;-35
2021/01/18 05:21:06;;;;;;;34.60;14.20;;;;;;;2.67;76.72;100693.81;4938684;29;20035;-35
2021/01/18 05:23:37;;;;;;;36.00;16.13;;;;;;;2.66;76.84;100692.03;4938088;29;20031;-35
2021/01/18 05:26:26;;;;;;;33.65;12.32;;;;;;;2.66;77.94;100689.47;4936835;29;20503;-35
2021/01/18 05:28:55;;;;;;;29.25;13.63;;;;;;;2.66;76.56;100692.94;4905801;29;20040;-35
2021/01/18 05:31:27;;;;;;;26.88;12.80;;;;;;;2.67;77.78;100691.25;4938561;29;20038;-35
2021/01/18 05:34:05;;;;;;;33.42;13.55;;;;;;;2.67;77.36;100694.69;4921692;29;20035;-35
2021/01/18 05:36:35;;;;;;;27.10;12.15;;;;;;;2.66;76.37;100700.63;4938097;29;20043;-35
2021/01/18 05:39:18;;;;;;;31.48;13.23;;;;;;;2.66;77.77;100699.72;4938206;29;20551;-35
2021/01/18 05:41:46;;;;;;;28.52;14.05;;;;;;;2.64;76.85;100689.41;4938954;29;20075;-35
2021/01/18 05:44:12;;;;;;;33.88;12.40;;;;;;;2.66;76.29;100694.59;4937941;29;20035;-35
2021/01/18 05:46:45;;;;;;;31.15;12.90;;;;;;;2.66;76.64;100690.38;4936945;29;20090;-35
2021/01/18 05:49:33;;;;;;;32.72;12.63;;;;;;;2.65;76.35;100696.28;4937599;29;20073;-35
2021/01/18 05:51:58;;;;;;;32.47;13.20;;;;;;;2.63;76.14;100699.56;4936704;29;20071;-35
2021/01/18 05:54:27;;;;;;;26.23;11.43;;;;;;;2.65;76.28;100696.28;4937612;29;20036;-35
2021/01/18 05:56:58;;;;;;;30.35;12.55;;;;;;;2.60;77.29;100702.81;4937885;29;20067;-35
2021/01/18 05:59:26;;;;;;;32.95;12.25;;;;;;;2.61;75.99;100702.00;4936900;29;20032;-35
2021/01/18 06:01:57;;;;;;;26.25;12.20;;;;;;;2.59;76.92;100698.47;4917202;29;20059;-35
2021/01/18 06:04:31;;;;;;;33.90;13.40;;;;;;;2.61;77.19;100699.44;4918713;29;20562;-35
2021/01/18 06:07:02;;;;;;;24.02;12.05;;;;;;;2.61;76.95;100706.25;4919244;29;20047;-35
2021/01/18 06:09:49;;;;;;;28.50;11.75;;;;;;;2.57;77.22;100711.19;4918838;29;20507;-35
2021/01/18 06:12:29;;;;;;;29.98;12.07;;;;;;;2.58;77.46;100712.06;4933374;29;20408;-34
2021/01/18 06:15:11;;;;;;;38.17;12.38;;;;;;;2.59;76.66;100716.38;4917413;29;20041;-35
2021/01/18 06:17:50;;;;;;;29.25;12.65;;;;;;;2.58;76.31;100704.38;4917835;29;20048;-34
2021/01/18 06:20:28;;;;;;;29.25;11.82;;;;;;;2.57;77.17;100710.28;4918399;29;20032;-34
2021/01/18 06:22:56;;;;;;;27.70;10.45;;;;;;;2.56;76.34;100699.19;4933222;29;20044;-34
2021/01/18 06:25:24;;;;;;;28.33;10.57;;;;;;;2.57;76.60;100705.19;4917990;29;20032;-35
2021/01/18 06:27:58;;;;;;;29.40;11.02;;;;;;;2.57;76.66;100711.19;4918146;29;20039;-35
2021/01/18 06:30:26;;;;;;;;;;;;;;;2.56;78.03;100714.53;4933498;29;20149;-34
2021/01/18 06:33:20;;;;;;;22.42;11.15;;;;;;;2.55;76.89;100714.47;4917318;29;20279;-35
2021/01/18 06:35:45;;;;;;;33.85;13.05;;;;;;;2.57;75.99;100715.41;4900784;29;20063;-35
2021/01/18 06:38:20;;;;;;;32.53;11.75;;;;;;;2.55;77.12;100717.03;4933223;29;20032;-35
2021/01/18 06:40:58;;;;;;;31.45;12.43;;;;;;;2.56;77.59;100721.34;4917243;29;20044;-35
2021/01/18 06:43:24;;;;;;;29.08;11.63;;;;;;;2.55;76.29;100715.34;4932329;29;20028;-35
2021/01/18 06:45:49;;;;;;;27.85;10.82;;;;;;;2.56;76.32;100717.09;4917939;29;20043;-35
2021/01/18 06:48:19;;;;;;;28.65;11.85;;;;;;;2.55;76.81;100719.59;4917909;29;20028;-35
2021/01/18 06:50:50;;;;;;;31.55;10.85;;;;;;;2.54;77.38;100720.38;4917924;29;20195;-35
2021/01/18 06:53:34;;;;;;;29.38;10.65;;;;;;;2.55;77.64;100714.47;4918406;29;20059;-35
2021/01/18 06:56:06;;;;;;;23.33;9.50;;;;;;;2.57;76.74;100720.53;4917463;29;20036;-33
2021/01/18 06:59:03;;;;;;;27.15;10.13;;;;;;;2.57;77.50;100720.53;4900793;29;20045;-34
2021/01/18 07:01:30;;;;;;;28.35;10.80;;;;;;;2.59;76.52;100724.06;4920182;29;20408;-35
2021/01/18 07:04:08;;;;;;;25.08;10.55;;;;;;;2.57;77.50;100726.56;4904673;29;20069;-35
2021/01/18 07:06:46;;;;;;;25.75;10.82;;;;;;;2.57;77.42;100720.53;4919546;29;20043;-34
2021/01/18 07:09:19;;;;;;;26.42;10.43;;;;;;;2.57;77.23;100729.09;4936623;29;20054;-35
2021/01/18 07:11:58;;;;;;;23.33;10.00;;;;;;;2.57;76.65;100720.53;4936333;29;20035;-34
2021/01/18 07:14:34;;;;;;;28.70;9.75;;;;;;;2.57;77.48;100721.44;4936641;29;20200;-34
2021/01/18 07:17:10;;;;;;;16.67;9.07;;;;;;;2.56;77.14;100727.34;4929838;29;20046;-34
2021/01/18 07:19:42;;;;;;;21.70;9.13;;;;;;;2.57;76.89;100725.66;4955408;29;20046;-35
2021/01/18 07:22:26;;;;;;;20.42;9.40;;;;;;;2.56;77.59;100719.66;4938985;29;20479;-35
2021/01/18 07:25:12;;;;;;;21.42;10.15;;;;;;;2.55;77.67;100728.13;4938002;29;20043;-35
2021/01/18 07:27:46;;;;;;;20.25;9.60;;;;;;;2.57;76.92;100725.66;4937953;29;20094;-34
2021/01/18 07:30:15;;;;;;;20.60;8.88;;;;;;;2.56;76.71;100721.34;4954948;29;20047;-35
2021/01/18 07:32:43;;;;;;;23.05;9.60;;;;;;;2.55;76.55;100727.25;4937896;29;20035;-34
2021/01/18 07:35:14;;;;;;;21.55;9.95;;;;;;;2.55;76.51;100728.13;4955715;29;20130;-35
2021/01/18 07:37:40;;;;;;;13.48;7.72;;;;;;;2.54;76.85;100722.94;4955173;29;20035;-35
2021/01/18 07:40:13;;;;;;;20.85;8.43;;;;;;;2.51;77.04;100721.06;4938242;29;20051;-34
2021/01/18 07:42:41;;;;;;;19.15;8.18;;;;;;;2.53;76.82;100723.72;4937931;29;20046;-35
2021/01/18 07:45:12;;;;;;;21.00;8.70;;;;;;;2.52;77.03;100712.59;4938736;29;20046;-35
2021/01/18 07:48:18;;;;;;;24.08;9.10;;;;;;;2.52;78.15;100716.84;4955326;29;20035;-34
2021/01/18 07:50:59;;;;;;;16.75;8.18;;;;;;;2.52;77.10;100712.59;4900843;29;20054;-34
2021/01/18 07:53:31;;;;;;;18.73;7.13;;;;;;;2.53;77.74;100705.81;4955563;29;20070;-35
2021/01/18 07:56:05;;;;;;;16.50;8.68;;;;;;;2.53;77.68;100705.81;4955484;28;20043;-34
2021/01/18 07:58:34;;;;;;;18.92;7.90;;;;;;;2.52;76.53;100707.47;4955432;29;20039;-35
2021/01/18 08:01:14;;;;;;;22.02;8.00;;;;;;;2.52;77.59;100712.59;4955227;29;20146;-35
2021/01/18 08:03:49;;;;;;;15.43;7.82;;;;;;;2.52;77.69;100709.16;4954695;29;20054;-50
2021/01/18 08:06:31;;;;;;;23.15;8.30;;;;;;;2.51;77.55;100713.38;4955401;29;20039;-36
2021/01/18 08:09:25;;;;;;;19.88;8.55;;;;;;;2.52;77.80;100711.72;4955236;29;20039;-35
2021/01/18 08:12:29;;;;;;;14.70;7.30;;;;;;;2.52;77.97;100715.16;4954972;29;20143;-35
2021/01/18 08:15:11;;;;;;;19.27;7.60;;;;;;;2.49;77.95;100712.41;4938173;29;20043;-35
2021/01/18 08:17:42;;;;;;;17.92;8.27;;;;;;;2.51;76.40;100715.06;4955277;29;20047;-35
2021/01/18 08:20:28;;;;;;;19.02;8.52;;;;;;;2.50;78.50;100716.72;4938016;29;20483;-34
2021/01/18 08:23:01;;;;;;;21.52;8.48;;;;;;;2.51;77.54;100715.94;4955170;29;20495;-35
2021/01/18 08:25:30;;;;;;;16.02;7.30;;;;;;;2.51;77.49;100703.13;4937481;29;20043;-34
2021/01/18 08:27:59;;;;;;;20.42;8.32;;;;;;;2.51;76.71;100704.84;4954568;29;20491;-35
2021/01/18 08:30:33;;;;;;;15.32;6.57;;;;;;;2.52;77.52;100704.03;4921705;29;20054;-35
2021/01/18 08:33:07;;;;;;;18.42;7.43;;;;;;;2.52;77.62;100710.03;4937439;29;20054;-35
2021/01/18 08:35:44;;;;;;;19.48;7.22;;;;;;;2.50;77.63;100697.94;4954638;29;20118;-35
2021/01/18 08:38:24;;;;;;;17.83;6.50;;;;;;;2.53;77.76;100699.00;4955075;29;20491;-33
2021/01/18 08:41:13;;;;;;;15.75;7.75;;;;;;;2.54;78.08;100697.34;4954737;29;20147;-35
2021/01/18 08:43:55;;;;;;;16.65;7.50;;;;;;;2.53;78.19;100703.25;4938712;29;20050;-35
2021/01/18 08:46:42;;;;;;;15.90;7.15;;;;;;;2.54;78.25;100693.09;4941530;29;20086;-35
2021/01/18 08:49:31;;;;;;;18.92;6.80;;;;;;;2.52;78.74;100696.38;4941072;29;20039;-34
2021/01/18 08:52:15;;;;;;;17.00;7.55;;;;;;;2.54;77.22;100698.22;4941144;29;20126;-35
2021/01/18 08:54:49;;;;;;;23.85;7.78;;;;;;;2.54;77.55;100705.88;4958569;29;20039;-34
2021/01/18 08:57:25;;;;;;;20.77;8.20;;;;;;;2.56;78.15;100713.69;4957680;29;20086;-35
2021/01/18 09:00:10;;;;;;;17.73;7.22;;;;;;;2.56;78.14;100709.44;4940601;29;20507;-34
2021/01/18 09:02:40;;;;;;;13.75;6.47;;;;;;;2.56;77.29;100701.75;4940635;29;20054;-34
2021/01/18 09:05:22;;;;;;;16.88;7.43;;;;;;;2.56;78.27;100704.31;4958321;29;20039;-34
2021/01/18 09:07:56;;;;;;;18.73;7.07;;;;;;;2.58;77.73;100701.81;4940942;29;20035;-35
2021/01/18 09:10:25;;;;;;;21.00;8.25;;;;;;;2.59;77.09;100695.91;4940102;29;20121;-35
2021/01/18 09:13:03;;;;;;;14.90;6.97;;;;;;;2.58;77.55;100696.72;4924802;29;20126;-35
2021/01/18 09:15:38;;;;;;;20.20;7.70;;;;;;;2.59;77.67;100701.03;4940786;29;20098;-33
2021/01/18 09:18:13;;;;;;;16.98;7.05;;;;;;;2.59;78.56;100713.84;4940791;29;20035;-35
2021/01/18 09:20:40;;;;;;;13.30;7.22;;;;;;;2.62;77.31;100705.47;4940812;29;20046;-34
2021/01/18 09:23:10;;;;;;;20.30;7.57;;;;;;;2.62;77.54;100710.59;4940470;29;20043;-35
2021/01/18 09:25:36;;;;;;;23.90;7.63;;;;;;;2.63;77.15;100720.91;4957505;29;20039;-34
2021/01/18 09:28:21;;;;;;;18.20;7.53;;;;;;;2.63;77.95;100720.03;4940143;29;20042;-35
2021/01/18 09:30:52;;;;;;;14.60;6.80;;;;;;;2.63;77.71;100727.72;4924252;29;20482;-34
2021/01/18 09:33:28;;;;;;;18.60;6.95;;;;;;;2.63;78.48;100723.47;4940849;29;20035;-35
2021/01/18 09:35:54;;;;;;;;;;;;;;;2.62;79.97;100719.13;4940913;29;20058;-34
2021/01/18 09:38:30;;;;;;;15.00;7.50;;;;;;;2.63;77.75;100715.78;4940051;29;19914;-34
2021/01/18 09:40:56;;;;;;;21.13;7.40;;;;;;;2.66;77.47;100715.06;4940466;29;20035;-34
2021/01/18 09:43:33;;;;;;;20.63;7.15;;;;;;;2.67;78.29;100720.31;4957269;29;20043;-34
2021/01/18 09:46:01;;;;;;;19.20;7.22;;;;;;;2.67;77.83;100722.84;4956690;29;20456;-34
2021/01/18 09:48:32;;;;;;;15.38;6.53;;;;;;;2.69;78.29;100726.41;4957217;29;20063;-34
2021/01/18 09:51:24;;;;;;;20.38;6.35;;;;;;;2.70;79.21;100722.16;4957216;29;20035;-34
2021/01/18 09:54:00;;;;;;;22.77;7.43;;;;;;;2.72;78.63;100720.56;4953427;29;20043;-34
2021/01/18 09:56:31;;;;;;;21.58;6.72;;;;;;;2.73;78.00;100725.75;4956520;28;20039;-34
2021/01/18 09:59:12;;;;;;;18.15;7.50;;;;;;;2.75;78.62;100723.31;4957004;29;20269;-35
2021/01/18 10:01:44;;;;;;;14.23;5.78;;;;;;;2.75;78.54;100725.88;4956626;28;20467;-35
2021/01/18 10:04:23;;;;;;;15.32;5.88;;;;;;;2.78;78.40;100725.16;4939481;29;20122;-35
2021/01/18 10:07:02;;;;;;;18.95;6.35;;;;;;;2.81;78.88;100722.78;4956395;29;20039;-34
2021/01/18 10:09:34;;;;;;;14.43;6.30;;;;;;;2.81;78.06;100731.31;4957057;29;20050;-34
2021/01/18 10:12:04;;;;;;;17.67;6.30;;;;;;;2.83;78.58;100723.75;4956940;29;20039;-35
2021/01/18 10:14:34;;;;;;;20.17;6.15;;;;;;;2.84;78.45;100722.97;4923852;29;20509;-35
2021/01/18 10:17:09;;;;;;;17.65;6.90;;;;;;;2.86;78.45;100726.50;4939855;29;20047;-35
2021/01/18 10:19:39;;;;;;;19.50;7.28;;;;;;;2.86;78.51;100722.25;4956680;29;20085;-40
2021/01/18 10:22:18;;;;;;;11.60;5.40;;;;;;;2.88;79.24;100722.34;4939247;29;20038;-34
2021/01/18 10:24:55;;;;;;;23.92;6.18;;;;;;;2.91;78.99;100724.19;4956380;29;20035;-34
2021/01/18 10:27:28;;;;;;;15.63;6.03;;;;;;;2.92;78.24;100721.72;4956556;29;20035;-34
2021/01/18 10:30:14;;;;;;;15.93;5.68;;;;;;;2.92;79.24;100715.72;4939197;29;20070;-34
2021/01/18 10:32:45;;;;;;;18.02;6.70;;;;;;;2.91;78.55;100716.50;4939499;29;20028;-34
2021/01/18 10:35:32;;;;;;;12.20;5.53;;;;;;;2.94;78.97;100707.31;4956936;29;20051;-34
2021/01/18 10:38:12;;;;;;;16.80;6.32;;;;;;;2.94;79.22;100712.44;4956417;29;20039;-34
2021/01/18 10:40:38;;;;;;;16.35;6.13;;;;;;;2.96;77.94;100704.88;4939169;29;20039;-34
2021/01/18 10:43:09;;;;;;;15.77;6.43;;;;;;;2.96;78.44;100705.75;4955918;29;20031;-34
2021/01/18 10:45:42;;;;;;;15.95;5.60;;;;;;;2.97;79.13;100709.16;4939172;29;20064;-34
2021/01/18 10:48:14;;;;;;;15.93;5.00;;;;;;;2.97;78.97;100707.50;4956129;29;20054;-34
2021/01/18 10:50:45;;;;;;;16.85;5.72;;;;;;;2.97;78.64;100688.69;4956171;29;20071;-34
2021/01/18 10:53:17;;;;;;;15.23;4.65;;;;;;;3.00;77.98;100700.00;4938373;29;20046;-34
2021/01/18 10:55:48;;;;;;;12.55;4.82;;;;;;;3.00;78.29;100686.31;4956451;29;20039;-34
2021/01/18 10:58:26;;;;;;;15.27;5.70;;;;;;;2.98;79.15;100686.22;4955971;29;20039;-34
2021/01/18 11:00:54;;;;;;;17.67;4.75;;;;;;;3.00;78.51;100686.31;4955963;29;20044;-34
2021/01/18 11:03:26;;;;;;;20.50;6.20;;;;;;;3.03;78.33;100684.81;4938725;29;20062;-35
2021/01/18 11:05:54;;;;;;;11.25;5.55;;;;;;;3.06;78.36;100671.28;4956234;28;20046;-34
2021/01/18 11:08:29;;;;;;;13.68;5.25;;;;;;;3.09;79.37;100673.13;4938369;29;20078;-34
2021/01/18 11:10:58;;;;;;;19.20;6.22;;;;;;;3.14;78.03;100659.78;4938783;29;20169;-34
2021/01/18 11:13:32;;;;;;;22.35;5.63;;;;;;;3.22;79.15;100654.22;4938664;29;20074;-34
2021/01/18 11:15:57;;;;;;;18.33;5.97;;;;;;;3.24;78.72;100656.06;4955621;29;20042;-34
2021/01/18 11:18:29;;;;;;;11.23;5.30;;;;;;;3.30;78.97;100656.41;4955653;29;20181;-34
2021/01/18 11:21:00;;;;;;;19.73;6.03;;;;;;;3.37;78.88;100646.47;4938886;29;20039;-34
2021/01/18 11:23:34;;;;;;;14.52;5.82;;;;;;;3.40;78.82;100637.31;4955234;29;20191;-34
2021/01/18 11:26:09;;;;;;;21.98;6.75;;;;;;;3.42;78.26;100640.84;4955602;29;20126;-34
2021/01/18 11:28:41;;;;;;;17.15;6.28;;;;;;;3.44;78.85;100638.34;4955155;29;20083;-34
2021/01/18 11:31:18;;;;;;;21.25;6.18;;;;;;;3.46;78.47;100632.50;4955543;29;20130;-34
2021/01/18 11:33:50;;;;;;;14.10;5.15;;;;;;;3.46;78.49;100634.19;4955587;29;20118;-34
2021/01/18 11:36:25;;;;;;;17.20;5.68;;;;;;;3.48;79.47;100630.03;4955074;29;20153;-34
2021/01/18 11:38:54;;;;;;;18.67;5.55;;;;;;;3.51;78.59;100622.47;4955228;29;20114;-35
2021/01/18 11:41:32;;;;;;;16.63;7.00;;;;;;;3.52;78.80;100615.69;4954437;29;20051;-35
2021/01/18 11:44:01;;;;;;;18.77;5.50;;;;;;;3.50;77.76;100620.75;4955669;29;20044;-34
2021/01/18 11:46:33;;;;;;;22.52;5.18;;;;;;;3.49;78.80;100616.41;4922151;29;20039;-34
2021/01/18 11:49:06;;;;;;;14.90;6.00;;;;;;;3.50;78.54;100620.75;4938221;29;20074;-34
2021/01/18 11:51:38;;;;;;;17.98;6.70;;;;;;;3.50;77.85;100607.94;4938037;29;20039;-34